FLI434 EKVG-ENGM
Flight info
| Callsign | FLI434 |
|---|---|
| Flight time | N/A |
| Altitude | 37000 |
| Route | ROBUR DCT ERSER/N0437F370 DCT EKTAR DCT ADOPI |
| Aircraft | A320/M-SDE3FGHIRWY/LB1 |
Departure
| Time | N/A |
|---|---|
| Airport | Vágar Airport (EKVG) |
Arrival
| Time | 2026-05-01 07:49 |
|---|---|
| Airport | Oslo-Gardermoen International Airport (ENGM) |
| Time | Latitude | Longitude | Altitude | Speed | Heading |
|---|---|---|---|---|---|
| 2026-05-01 07:23 | 60.88241 | 6.72432 | 37280 ft | 479 kts | 104° |
| 2026-05-01 07:24 | 60.86274 | 6.92541 | 37240 ft | 479 kts | 105° |
| 2026-05-01 07:24 | 60.84953 | 7.05926 | 36921 ft | 479 kts | 105° |
| 2026-05-01 07:24 | 60.84292 | 7.12577 | 36493 ft | 473 kts | 105° |
| 2026-05-01 07:25 | 60.83641 | 7.19075 | 36087 ft | 469 kts | 105° |
| 2026-05-01 07:25 | 60.82974 | 7.25692 | 35673 ft | 466 kts | 105° |
| 2026-05-01 07:25 | 60.82324 | 7.32087 | 35278 ft | 463 kts | 106° |
| 2026-05-01 07:25 | 60.81666 | 7.38530 | 34884 ft | 460 kts | 106° |
| 2026-05-01 07:26 | 60.81010 | 7.44940 | 34501 ft | 458 kts | 106° |
| 2026-05-01 07:26 | 60.80354 | 7.51313 | 34091 ft | 456 kts | 106° |
| 2026-05-01 07:26 | 60.79698 | 7.57656 | 33640 ft | 454 kts | 106° |
| 2026-05-01 07:26 | 60.79042 | 7.63966 | 33203 ft | 451 kts | 107° |
| 2026-05-01 07:27 | 60.78387 | 7.70225 | 32778 ft | 448 kts | 107° |
| 2026-05-01 07:27 | 60.77732 | 7.76439 | 32361 ft | 445 kts | 107° |
| 2026-05-01 07:27 | 60.77078 | 7.82600 | 31942 ft | 442 kts | 107° |
| 2026-05-01 07:27 | 60.76424 | 7.88726 | 31545 ft | 439 kts | 107° |
| 2026-05-01 07:28 | 60.75774 | 7.94815 | 31128 ft | 436 kts | 107° |
| 2026-05-01 07:28 | 60.75130 | 8.00847 | 30729 ft | 433 kts | 107° |
| 2026-05-01 07:28 | 60.74486 | 8.06842 | 30337 ft | 430 kts | 107° |
| 2026-05-01 07:28 | 60.73842 | 8.12804 | 29879 ft | 428 kts | 107° |
| 2026-05-01 07:29 | 60.73206 | 8.18635 | 29454 ft | 425 kts | 107° |
| 2026-05-01 07:29 | 60.72562 | 8.24516 | 28986 ft | 423 kts | 107° |
| 2026-05-01 07:29 | 60.71921 | 8.30354 | 28544 ft | 420 kts | 107° |
| 2026-05-01 07:29 | 60.71284 | 8.36158 | 28113 ft | 418 kts | 107° |
| 2026-05-01 07:30 | 60.70648 | 8.41927 | 27678 ft | 415 kts | 107° |
| 2026-05-01 07:30 | 60.70015 | 8.47664 | 27255 ft | 412 kts | 107° |
| 2026-05-01 07:30 | 60.69598 | 8.51434 | 26983 ft | 411 kts | 107° |
| 2026-05-01 07:30 | 60.68968 | 8.57106 | 26574 ft | 409 kts | 107° |
| 2026-05-01 07:31 | 60.68338 | 8.62735 | 26171 ft | 406 kts | 107° |
| 2026-05-01 07:31 | 60.66447 | 8.79432 | 24982 ft | 399 kts | 107° |
| 2026-05-01 07:32 | 60.65188 | 8.90381 | 24212 ft | 395 kts | 107° |
| 2026-05-01 07:32 | 60.64561 | 8.95825 | 23839 ft | 394 kts | 107° |
| 2026-05-01 07:33 | 60.63311 | 9.06640 | 22956 ft | 390 kts | 107° |
| 2026-05-01 07:33 | 60.62688 | 9.12005 | 22524 ft | 388 kts | 107° |
| 2026-05-01 07:33 | 60.61443 | 9.22704 | 21569 ft | 388 kts | 108° |
| 2026-05-01 07:34 | 60.60817 | 9.28052 | 21049 ft | 389 kts | 108° |
| 2026-05-01 07:34 | 60.59558 | 9.38715 | 20061 ft | 390 kts | 108° |
| 2026-05-01 07:34 | 60.58917 | 9.44094 | 19573 ft | 391 kts | 108° |
| 2026-05-01 07:35 | 60.58271 | 9.49479 | 19088 ft | 392 kts | 108° |
| 2026-05-01 07:35 | 60.57624 | 9.54862 | 18605 ft | 392 kts | 108° |
| 2026-05-01 07:35 | 60.56975 | 9.60258 | 18079 ft | 393 kts | 107° |
| 2026-05-01 07:35 | 60.56324 | 9.65657 | 17547 ft | 393 kts | 107° |
| 2026-05-01 07:36 | 60.55675 | 9.71034 | 17004 ft | 388 kts | 107° |
| 2026-05-01 07:36 | 60.55105 | 9.75748 | 16549 ft | 377 kts | 107° |
| 2026-05-01 07:36 | 60.54488 | 9.80853 | 16039 ft | 368 kts | 107° |
| 2026-05-01 07:36 | 60.53881 | 9.85832 | 15542 ft | 358 kts | 107° |
| 2026-05-01 07:37 | 60.52698 | 9.95438 | 14567 ft | 344 kts | 107° |
| 2026-05-01 07:37 | 60.52120 | 10.00105 | 14096 ft | 340 kts | 107° |
| 2026-05-01 07:37 | 60.51546 | 10.04722 | 13574 ft | 336 kts | 107° |
| 2026-05-01 07:38 | 60.50976 | 10.09304 | 13051 ft | 333 kts | 108° |
| 2026-05-01 07:38 | 60.50410 | 10.13831 | 12537 ft | 330 kts | 108° |
| 2026-05-01 07:38 | 60.49379 | 10.22937 | 11542 ft | 338 kts | 103° |
| 2026-05-01 07:39 | 60.48970 | 10.27588 | 11151 ft | 340 kts | 102° |
| 2026-05-01 07:39 | 60.48583 | 10.32306 | 10766 ft | 338 kts | 101° |
| 2026-05-01 07:39 | 60.47818 | 10.41628 | 9985 ft | 327 kts | 102° |
| 2026-05-01 07:40 | 60.47440 | 10.46083 | 9562 ft | 316 kts | 102° |
| 2026-05-01 07:40 | 60.47060 | 10.50434 | 9151 ft | 312 kts | 102° |
| 2026-05-01 07:40 | 60.46675 | 10.54746 | 8735 ft | 310 kts | 102° |
| 2026-05-01 07:40 | 60.46341 | 10.58433 | 8388 ft | 308 kts | 102° |
| 2026-05-01 07:41 | 60.45952 | 10.62717 | 7999 ft | 309 kts | 102° |
| 2026-05-01 07:41 | 60.45564 | 10.66984 | 7603 ft | 308 kts | 102° |
| 2026-05-01 07:41 | 60.44786 | 10.75469 | 6825 ft | 306 kts | 102° |
| 2026-05-01 07:42 | 60.44395 | 10.79700 | 6428 ft | 304 kts | 102° |
| 2026-05-01 07:42 | 60.44007 | 10.83896 | 6060 ft | 301 kts | 102° |
| 2026-05-01 07:42 | 60.43628 | 10.88022 | 5728 ft | 296 kts | 101° |
| 2026-05-01 07:42 | 60.43252 | 10.92092 | 5404 ft | 292 kts | 101° |
| 2026-05-01 07:43 | 60.42881 | 10.96077 | 5081 ft | 282 kts | 101° |
| 2026-05-01 07:43 | 60.42527 | 10.99884 | 4742 ft | 268 kts | 101° |
| 2026-05-01 07:43 | 60.41858 | 11.07023 | 4096 ft | 253 kts | 101° |
| 2026-05-01 07:44 | 60.41219 | 11.13826 | 3521 ft | 236 kts | 101° |
| 2026-05-01 07:44 | 60.39507 | 11.18745 | 3506 ft | 217 kts | 169° |
| 2026-05-01 07:45 | 60.38065 | 11.18758 | 3507 ft | 206 kts | 198° |
| 2026-05-01 07:45 | 60.36749 | 11.18003 | 3536 ft | 194 kts | 202° |
| 2026-05-01 07:45 | 60.35677 | 11.17355 | 3497 ft | 190 kts | 201° |
| 2026-05-01 07:45 | 60.34417 | 11.16626 | 3312 ft | 187 kts | 201° |
| 2026-05-01 07:46 | 60.33198 | 11.15903 | 3090 ft | 181 kts | 200° |
| 2026-05-01 07:46 | 60.32006 | 11.15204 | 2868 ft | 177 kts | 200° |
| 2026-05-01 07:46 | 60.29722 | 11.13876 | 2427 ft | 157 kts | 199° |
| 2026-05-01 07:47 | 60.28699 | 11.13286 | 2211 ft | 149 kts | 199° |
| 2026-05-01 07:47 | 60.27729 | 11.12719 | 2003 ft | 143 kts | 199° |
| 2026-05-01 07:47 | 60.26774 | 11.12163 | 1803 ft | 142 kts | 199° |
| 2026-05-01 07:47 | 60.25830 | 11.11615 | 1608 ft | 140 kts | 198° |
| 2026-05-01 07:48 | 60.24382 | 11.10765 | 1283 ft | 137 kts | 197° |
| 2026-05-01 07:48 | 60.23469 | 11.10236 | 1086 ft | 136 kts | 195° |
| 2026-05-01 07:48 | 60.22560 | 11.09720 | 891 ft | 136 kts | 194° |
| 2026-05-01 07:49 | 60.21648 | 11.09197 | 732 ft | 136 kts | 195° |
| 2026-05-01 07:49 | 60.20459 | 11.08502 | 678 ft | 19 kts | 196° |
| 2026-05-01 07:49 | 60.20341 | 11.08435 | 677 ft | 22 kts | 195° |
| 2026-05-01 07:50 | 60.20179 | 11.08346 | 676 ft | 25 kts | 195° |
| 2026-05-01 07:50 | 60.19886 | 11.08497 | 677 ft | 24 kts | 105° |
| 2026-05-01 07:50 | 60.19839 | 11.08812 | 677 ft | 25 kts | 105° |
| 2026-05-01 07:51 | 60.19796 | 11.09116 | 683 ft | 18 kts | 106° |
| 2026-05-01 07:51 | 60.19760 | 11.09368 | 681 ft | 20 kts | 106° |
| 2026-05-01 07:51 | 60.19725 | 11.09571 | 683 ft | 13 kts | 129° |
| 2026-05-01 07:52 | 60.19589 | 11.09774 | 685 ft | 10 kts | 135° |
| 2026-05-01 07:52 | 60.19560 | 11.09859 | 685 ft | 4 kts | 104° |
| 2026-05-01 07:52 | 60.19555 | 11.09893 | 685 ft | 1 kts | 105° |
| 2026-05-01 07:53 | 60.19553 | 11.09905 | 685 ft | 0 kts | 105° |
| 2026-05-01 07:53 | 60.19552 | 11.09912 | 685 ft | 0 kts | 105° |